Creek Data

    Home     View Charts     View Raw Data     Messages

ID Distance Battery Voltage Battery Current Internal Temp Internal Humidity External Temp Solar Input rssi snr Time Stamp Record
65795 15.2 3.94 0 70 45 62 5.1 -76 8 02/09/2026 02:15 PM 48595
65794 15.2 3.94 0 68 46 62 5.1 -76 8 02/09/2026 02:00 PM 48594
65793 15.1 3.94 7 64 48 60 5.1 -75 8 02/09/2026 01:45 PM 48593
65792 15.1 3.96 7 62 49 60 5.1 -76 8 02/09/2026 01:30 PM 48592
65791 15.1 3.94 7 61 49 59 5.1 -75 8 02/09/2026 01:15 PM 48591
65790 15.1 3.94 5 61 50 58 5.1 -77 8 02/09/2026 01:00 PM 48590
65789 15.1 3.94 0 61 49 58 5.1 -76 7 02/09/2026 12:45 PM 48589
65788 15.1 3.94 0 61 49 58 5.1 -78 7 02/09/2026 12:30 PM 48588
65787 15.1 3.94 7 63 48 59 5.1 -75 8 02/09/2026 12:15 PM 48587
65786 15.2 3.94 0 63 47 59 5.1 -75 8 02/09/2026 12:00 PM 48586
65785 15.1 3.96 7 62 47 58 5.1 -75 8 02/09/2026 11:45 AM 48585
65784 15.1 4.09 7 60 48 57 5.1 -76 8 02/09/2026 11:30 AM 48584
65783 15.1 3.94 7 60 48 57 5.1 -74 7 02/09/2026 11:15 AM 48583
65782 15.1 3.94 0 61 47 57 5.1 -75 8 02/09/2026 11:00 AM 48582
65781 15.1 4.04 0 59 48 56 5.1 -76 8 02/09/2026 10:45 AM 48581
65780 15.1 3.94 7 58 48 55 5.1 -73 8 02/09/2026 10:30 AM 48580
65779 15.1 3.94 0 57 47 54 5.1 -76 8 02/09/2026 10:15 AM 48579
65778 15.1 4.12 7 57 47 54 5.1 -73 8 02/09/2026 10:00 AM 48578
65777 15.1 4.05 6 55 47 54 5.1 -75 9 02/09/2026 09:45 AM 48577
65776 15.1 3.94 5 53 48 53 5.1 -75 8 02/09/2026 09:30 AM 48576
65775 15.1 3.94 6 52 48 51 5.1 -74 8 02/09/2026 09:15 AM 48575
65774 15.1 4.07 53 52 48 51 4.5 -75 9 02/09/2026 09:00 AM 48574
65773 15.1 3.93 0 51 48 51 5 -75 8 02/09/2026 08:45 AM 48573
65772 15.0 4.16 72 50 48 50 4.5 -76 8 02/09/2026 08:30 AM 48572
65771 15.0 4.06 69 49 48 50 4.5 -74 8 02/09/2026 08:15 AM 48571